Time;durP1;ratioP1;P1;durP2;ratioP2;P2;SDS_P1;SDS_P2;PMS_P1;PMS_P2;Temp;Humidity;BMP_temperature;BMP_pressure;BME280_temperature;BME280_humidity;BME280_pressure;Samples;Min_cycle;Max_cycle;Signal;HPM_P1;HPM_P2
2022/03/08 00:02:06;;;;;;;12.10;10.90;;;;;;;;;;5073686;28;24407;-52
2022/03/08 00:04:31;;;;;;;11.10;10.00;;;;;;;;;;5066821;28;24441;-52
2022/03/08 00:06:56;;;;;;;12.13;10.93;;;;;;;;;;5067640;28;24892;-52
2022/03/08 00:09:21;;;;;;;11.20;10.00;;;;;;;;;;5068055;28;24423;-52
2022/03/08 00:11:47;;;;;;;10.80;9.60;;;;;;;;;;5067859;28;24511;-51
2022/03/08 00:14:12;;;;;;;11.40;10.02;;;;;;;;;;5067141;28;24992;-52
2022/03/08 00:16:37;;;;;;;11.50;8.80;;;;;;;;;;5067751;28;24437;-52
2022/03/08 00:19:02;;;;;;;10.32;9.25;;;;;;;;;;5070730;28;24430;-52
2022/03/08 00:21:27;;;;;;;11.50;9.13;;;;;;;;;;5066711;28;24410;-51
2022/03/08 00:23:53;;;;;;;10.07;9.00;;;;;;;;;;5072203;28;24513;-52
2022/03/08 00:26:18;;;;;;;10.53;9.20;;;;;;;;;;5067097;28;24423;-52
2022/03/08 00:28:43;;;;;;;11.30;10.10;;;;;;;;;;5075358;28;24785;-52
2022/03/08 00:31:08;;;;;;;10.90;9.50;;;;;;;;;;5067454;28;24414;-51
2022/03/08 00:33:33;;;;;;;9.55;8.65;;;;;;;;;;5065343;28;24586;-51
2022/03/08 00:35:58;;;;;;;10.90;9.20;;;;;;;;;;5067216;28;24515;-52
2022/03/08 00:38:24;;;;;;;10.97;9.10;;;;;;;;;;5067090;28;24411;-52
2022/03/08 00:40:49;;;;;;;10.20;9.20;;;;;;;;;;5069636;28;24840;-51
2022/03/08 00:43:14;;;;;;;10.73;9.70;;;;;;;;;;5067070;28;24427;-52
2022/03/08 00:45:40;;;;;;;9.90;8.93;;;;;;;;;;5065671;28;24427;-52
2022/03/08 00:48:05;;;;;;;10.10;9.10;;;;;;;;;;5066775;28;24419;-52
2022/03/08 00:50:31;;;;;;;11.00;9.00;;;;;;;;;;5071858;28;24418;-51
2022/03/08 00:52:57;;;;;;;10.30;9.20;;;;;;;;;;5066901;28;24812;-52
2022/03/08 00:55:22;;;;;;;9.15;8.32;;;;;;;;;;5072109;28;25037;-52
2022/03/08 00:57:48;;;;;;;10.02;9.05;;;;;;;;;;5066639;28;24477;-52
2022/03/08 01:00:14;;;;;;;10.98;9.57;;;;;;;;;;5066503;28;24406;-52
2022/03/08 01:02:40;;;;;;;10.90;9.90;;;;;;;;;;5075254;28;24413;-52
2022/03/08 01:05:05;;;;;;;11.20;10.10;;;;;;;;;;5065296;28;24427;-52
2022/03/08 01:07:30;;;;;;;11.30;10.20;;;;;;;;;;5065747;28;24945;-52
2022/03/08 01:09:56;;;;;;;10.90;9.80;;;;;;;;;;5066813;28;24442;-52
2022/03/08 01:12:21;;;;;;;11.93;9.82;;;;;;;;;;5066704;28;25036;-52
2022/03/08 01:14:47;;;;;;;12.73;10.33;;;;;;;;;;5072561;28;24434;-52
2022/03/08 01:17:12;;;;;;;10.30;9.30;;;;;;;;;;5066576;28;24407;-52
2022/03/08 01:19:37;;;;;;;10.73;9.10;;;;;;;;;;5067128;28;24426;-52
2022/03/08 01:22:02;;;;;;;10.30;9.30;;;;;;;;;;5065103;28;24956;-52
2022/03/08 01:24:28;;;;;;;9.95;9.05;;;;;;;;;;5066352;28;24418;-52
2022/03/08 01:26:53;;;;;;;10.25;9.15;;;;;;;;;;5070566;28;24501;-52
2022/03/08 01:29:19;;;;;;;10.93;9.30;;;;;;;;;;5065711;28;24774;-52
2022/03/08 01:31:44;;;;;;;10.40;9.30;;;;;;;;;;5066064;28;24410;-51
2022/03/08 01:34:09;;;;;;;10.70;9.43;;;;;;;;;;5066748;28;24978;-52
2022/03/08 01:36:34;;;;;;;10.90;9.77;;;;;;;;;;5066520;28;24449;-51
2022/03/08 01:38:59;;;;;;;11.02;9.93;;;;;;;;;;5066788;28;24488;-51
2022/03/08 01:41:24;;;;;;;11.65;9.80;;;;;;;;;;5066060;28;24442;-52
2022/03/08 01:43:49;;;;;;;11.27;9.98;;;;;;;;;;5072298;28;24409;-51
2022/03/08 01:46:15;;;;;;;10.60;9.50;;;;;;;;;;5078131;28;24465;-51
2022/03/08 01:48:40;;;;;;;10.83;9.83;;;;;;;;;;5080575;28;25029;-52
2022/03/08 01:51:05;;;;;;;10.13;9.13;;;;;;;;;;5068257;28;24837;-52
2022/03/08 01:53:31;;;;;;;10.60;9.50;;;;;;;;;;5064267;28;24510;-52
2022/03/08 01:55:56;;;;;;;12.20;9.75;;;;;;;;;;5070213;28;24750;-52
2022/03/08 01:58:21;;;;;;;10.40;9.40;;;;;;;;;;5071263;28;24438;-51
2022/03/08 02:00:47;;;;;;;10.80;9.70;;;;;;;;;;5073706;28;24481;-51
2022/03/08 02:03:12;;;;;;;10.40;9.30;;;;;;;;;;5070230;28;24995;-53
2022/03/08 02:05:37;;;;;;;10.60;9.60;;;;;;;;;;5070435;28;24488;-52
2022/03/08 02:08:02;;;;;;;10.80;9.70;;;;;;;;;;5066934;28;24772;-52
2022/03/08 02:10:27;;;;;;;10.67;9.40;;;;;;;;;;5074821;28;24480;-52
2022/03/08 02:12:53;;;;;;;9.70;8.80;;;;;;;;;;5070232;28;24411;-51
2022/03/08 02:15:19;;;;;;;10.20;9.17;;;;;;;;;;5055932;28;24403;-52
2022/03/08 02:17:45;;;;;;;10.52;9.15;;;;;;;;;;5070280;28;24410;-51
2022/03/08 02:20:11;;;;;;;9.53;8.63;;;;;;;;;;5077138;28;24450;-51
2022/03/08 02:22:36;;;;;;;10.82;9.73;;;;;;;;;;5064099;28;24430;-52
2022/03/08 02:25:02;;;;;;;10.90;9.10;;;;;;;;;;5069825;28;24488;-52
2022/03/08 02:27:27;;;;;;;10.87;9.10;;;;;;;;;;5069501;28;24761;-51
2022/03/08 02:29:52;;;;;;;10.07;9.07;;;;;;;;;;5067869;28;24475;-52
2022/03/08 02:32:17;;;;;;;9.93;8.93;;;;;;;;;;5066764;28;24491;-52
2022/03/08 02:34:42;;;;;;;10.13;9.03;;;;;;;;;;5070143;28;24505;-52
2022/03/08 02:37:08;;;;;;;10.40;9.32;;;;;;;;;;5069706;28;24414;-52
2022/03/08 02:39:34;;;;;;;10.50;9.50;;;;;;;;;;5067075;28;24451;-51
2022/03/08 02:41:59;;;;;;;11.48;9.50;;;;;;;;;;5074257;28;24469;-52
2022/03/08 02:44:26;;;;;;;11.60;9.40;;;;;;;;;;5068524;28;25212;-53
2022/03/08 02:46:52;;;;;;;11.38;9.55;;;;;;;;;;5070108;28;24430;-52
2022/03/08 02:49:17;;;;;;;10.32;9.32;;;;;;;;;;5069065;28;24761;-52
2022/03/08 02:51:42;;;;;;;10.65;9.55;;;;;;;;;;5070383;28;24999;-51
2022/03/08 02:54:07;;;;;;;10.30;9.20;;;;;;;;;;5069981;28;24564;-52
2022/03/08 02:56:33;;;;;;;9.90;8.90;;;;;;;;;;5068196;28;24976;-52
2022/03/08 02:58:58;;;;;;;11.67;9.50;;;;;;;;;;5068239;28;24561;-51
2022/03/08 03:01:23;;;;;;;11.18;9.23;;;;;;;;;;5068190;28;24429;-51
2022/03/08 03:03:48;;;;;;;10.50;9.50;;;;;;;;;;5070373;28;24962;-51
2022/03/08 03:06:13;;;;;;;9.70;8.70;;;;;;;;;;5086126;28;24483;-51
2022/03/08 03:08:38;;;;;;;11.20;8.60;;;;;;;;;;5073322;28;24418;-51
2022/03/08 03:11:03;;;;;;;10.45;9.35;;;;;;;;;;5067549;28;24972;-52
2022/03/08 03:13:29;;;;;;;11.23;8.80;;;;;;;;;;5073217;28;24426;-52
2022/03/08 03:15:54;;;;;;;9.43;8.32;;;;;;;;;;5070804;28;25000;-52
2022/03/08 03:18:19;;;;;;;11.50;9.25;;;;;;;;;;5068277;28;24824;-52
2022/03/08 03:20:44;;;;;;;9.90;8.73;;;;;;;;;;5068497;28;24414;-52
2022/03/08 03:23:09;;;;;;;9.30;8.03;;;;;;;;;;5068940;28;25037;-52
2022/03/08 03:25:34;;;;;;;9.10;8.30;;;;;;;;;;5069512;28;24458;-52
2022/03/08 03:27:59;;;;;;;9.10;8.20;;;;;;;;;;5072122;28;25035;-52
2022/03/08 03:30:25;;;;;;;9.60;8.60;;;;;;;;;;5073994;28;24450;-51
2022/03/08 03:32:50;;;;;;;10.20;9.20;;;;;;;;;;5078839;28;24410;-52
2022/03/08 03:35:15;;;;;;;9.20;8.30;;;;;;;;;;5068600;28;24530;-52
2022/03/08 03:37:41;;;;;;;9.83;8.83;;;;;;;;;;5068305;28;24531;-51
2022/03/08 03:40:06;;;;;;;9.80;8.90;;;;;;;;;;5068743;28;24480;-52
2022/03/08 03:42:32;;;;;;;9.87;8.50;;;;;;;;;;5067772;28;25142;-51
2022/03/08 03:44:57;;;;;;;9.70;8.35;;;;;;;;;;5067994;28;24434;-51
2022/03/08 03:47:22;;;;;;;9.37;8.37;;;;;;;;;;5068106;28;24429;-51
2022/03/08 03:49:47;;;;;;;9.43;8.53;;;;;;;;;;5069484;28;24996;-51
2022/03/08 03:52:12;;;;;;;9.57;8.57;;;;;;;;;;5067858;28;24418;-51
2022/03/08 03:54:37;;;;;;;9.40;8.50;;;;;;;;;;5067672;28;25052;-51
2022/03/08 03:57:03;;;;;;;10.13;9.02;;;;;;;;;;5067626;28;24964;-51
2022/03/08 03:59:28;;;;;;;11.20;8.97;;;;;;;;;;5070176;28;25066;-50
2022/03/08 04:01:53;;;;;;;9.80;8.80;;;;;;;;;;5075873;28;24417;-50
2022/03/08 04:04:18;;;;;;;11.13;9.33;;;;;;;;;;5075482;28;24972;-51
2022/03/08 04:06:43;;;;;;;9.80;8.80;;;;;;;;;;5080148;28;24422;-50
2022/03/08 04:09:09;;;;;;;12.63;9.63;;;;;;;;;;5067729;28;24438;-50
2022/03/08 04:11:34;;;;;;;11.52;9.90;;;;;;;;;;5066976;28;24423;-51
2022/03/08 04:13:59;;;;;;;10.57;9.10;;;;;;;;;;5068775;28;24426;-51
2022/03/08 04:16:25;;;;;;;10.83;9.70;;;;;;;;;;5068405;28;25018;-50
2022/03/08 04:18:50;;;;;;;9.70;8.70;;;;;;;;;;5069266;28;25005;-50
2022/03/08 04:21:15;;;;;;;9.27;8.37;;;;;;;;;;5080428;28;24576;-50
2022/03/08 04:23:40;;;;;;;8.90;8.10;;;;;;;;;;5067306;28;24407;-51
2022/03/08 04:26:05;;;;;;;10.40;8.20;;;;;;;;;;5066147;28;24423;-51
2022/03/08 04:28:31;;;;;;;8.80;7.90;;;;;;;;;;5066525;28;24568;-51
2022/03/08 04:30:56;;;;;;;8.60;7.70;;;;;;;;;;5066551;28;24781;-51
2022/03/08 04:33:21;;;;;;;8.83;7.53;;;;;;;;;;5070693;28;25106;-51
2022/03/08 04:35:46;;;;;;;8.83;7.93;;;;;;;;;;5069187;28;24494;-51
2022/03/08 04:38:12;;;;;;;9.32;7.45;;;;;;;;;;5066459;28;24458;-51
2022/03/08 04:40:37;;;;;;;8.17;7.47;;;;;;;;;;5066726;28;24419;-51
2022/03/08 04:43:02;;;;;;;9.52;7.93;;;;;;;;;;5067370;28;24444;-52
2022/03/08 04:45:27;;;;;;;9.95;8.00;;;;;;;;;;5066618;28;24431;-51
2022/03/08 04:47:52;;;;;;;10.75;8.52;;;;;;;;;;5066913;28;24454;-51
2022/03/08 04:50:17;;;;;;;9.00;8.10;;;;;;;;;;5067898;28;24418;-51
2022/03/08 04:52:44;;;;;;;9.57;8.67;;;;;;;;;;5066629;28;24425;-51
2022/03/08 04:55:09;;;;;;;8.60;7.80;;;;;;;;;;5066932;28;24418;-51
2022/03/08 04:57:34;;;;;;;10.40;8.17;;;;;;;;;;5067192;28;24434;-50
2022/03/08 05:00:00;;;;;;;8.93;8.03;;;;;;;;;;5067793;28;24415;-51
2022/03/08 05:02:25;;;;;;;10.70;8.50;;;;;;;;;;5065446;28;24445;-50
2022/03/08 05:04:50;;;;;;;10.10;8.90;;;;;;;;;;5071928;28;24999;-50
2022/03/08 05:07:15;;;;;;;10.17;8.90;;;;;;;;;;5069399;28;24987;-51
2022/03/08 05:09:40;;;;;;;9.70;8.60;;;;;;;;;;5066514;28;25190;-50
2022/03/08 05:12:08;;;;;;;11.50;9.00;;;;;;;;;;5066010;28;24411;-50
2022/03/08 05:14:33;;;;;;;9.50;8.60;;;;;;;;;;5072653;28;24411;-50
2022/03/08 05:16:58;;;;;;;10.45;9.35;;;;;;;;;;5067274;28;24421;-50
2022/03/08 05:19:23;;;;;;;11.20;9.50;;;;;;;;;;5065199;28;24411;-50
2022/03/08 05:21:48;;;;;;;10.70;9.60;;;;;;;;;;5071565;28;24515;-50
2022/03/08 05:24:13;;;;;;;10.73;9.23;;;;;;;;;;5064973;28;24407;-51
2022/03/08 05:26:39;;;;;;;9.80;8.80;;;;;;;;;;5065452;28;25316;-51
2022/03/08 05:29:05;;;;;;;10.82;9.55;;;;;;;;;;5067372;28;24399;-50
2022/03/08 05:31:30;;;;;;;11.40;10.20;;;;;;;;;;5064345;28;24465;-51
2022/03/08 05:33:55;;;;;;;11.37;9.90;;;;;;;;;;5066030;28;24504;-51
2022/03/08 05:36:21;;;;;;;13.60;9.77;;;;;;;;;;5063003;28;24422;-50
2022/03/08 05:38:46;;;;;;;13.15;10.50;;;;;;;;;;5044446;28;24571;-51
2022/03/08 05:41:11;;;;;;;12.90;10.40;;;;;;;;;;5063418;28;24427;-51
2022/03/08 05:43:36;;;;;;;13.34;10.16;;;;;;;;;;5063424;28;24423;-51
2022/03/08 05:46:01;;;;;;;10.88;9.77;;;;;;;;;;5071478;28;24458;-51
2022/03/08 05:48:26;;;;;;;13.13;10.02;;;;;;;;;;5067392;28;25015;-51
2022/03/08 05:50:52;;;;;;;12.20;10.00;;;;;;;;;;5068568;28;24422;-51
2022/03/08 05:53:17;;;;;;;11.36;9.98;;;;;;;;;;5068760;28;24552;-50
2022/03/08 05:55:42;;;;;;;14.03;10.10;;;;;;;;;;5072986;28;24442;-51
2022/03/08 05:58:07;;;;;;;13.07;10.90;;;;;;;;;;5062626;28;24470;-51
2022/03/08 06:00:32;;;;;;;14.00;11.30;;;;;;;;;;5056513;28;24457;-51
2022/03/08 06:02:57;;;;;;;14.68;10.30;;;;;;;;;;5054479;28;25054;-51
2022/03/08 06:05:23;;;;;;;11.60;9.90;;;;;;;;;;5073847;28;24442;-51
2022/03/08 06:07:48;;;;;;;10.85;9.75;;;;;;;;;;5056183;28;24999;-51
2022/03/08 06:10:13;;;;;;;13.33;9.90;;;;;;;;;;5049624;28;24957;-51
2022/03/08 06:12:38;;;;;;;10.67;9.57;;;;;;;;;;5066947;28;24446;-50
2022/03/08 06:15:04;;;;;;;11.40;9.47;;;;;;;;;;5066633;28;24963;-51
2022/03/08 06:17:29;;;;;;;12.67;10.07;;;;;;;;;;5060878;28;24421;-51
2022/03/08 06:19:55;;;;;;;12.10;10.30;;;;;;;;;;5061744;28;25051;-49
2022/03/08 06:22:20;;;;;;;12.57;10.10;;;;;;;;;;5066160;28;25008;-50
2022/03/08 06:24:45;;;;;;;10.50;9.50;;;;;;;;;;5062558;28;24992;-50
2022/03/08 06:27:10;;;;;;;12.73;10.30;;;;;;;;;;5086202;28;24452;-50
2022/03/08 06:29:35;;;;;;;11.23;10.00;;;;;;;;;;5088259;28;24401;-51
2022/03/08 06:32:00;;;;;;;11.07;10.00;;;;;;;;;;5090045;28;24443;-52
2022/03/08 06:34:26;;;;;;;11.03;9.93;;;;;;;;;;5089395;28;24379;-52
2022/03/08 06:36:51;;;;;;;9.95;8.95;;;;;;;;;;5069717;28;24949;-51
2022/03/08 06:39:16;;;;;;;12.07;10.20;;;;;;;;;;5069976;28;24972;-52
2022/03/08 06:41:41;;;;;;;10.77;9.67;;;;;;;;;;5069187;28;24725;-50
2022/03/08 06:44:06;;;;;;;10.98;9.82;;;;;;;;;;5069843;28;24402;-51
2022/03/08 06:46:31;;;;;;;10.50;9.40;;;;;;;;;;5068784;28;24832;-50
2022/03/08 06:48:56;;;;;;;11.93;10.20;;;;;;;;;;5073514;28;24562;-51
2022/03/08 06:51:24;;;;;;;11.90;10.70;;;;;;;;;;5061625;28;21283;-51
2022/03/08 06:53:49;;;;;;;11.50;10.03;;;;;;;;;;5057763;28;24418;-52
2022/03/08 06:56:14;;;;;;;11.30;10.20;;;;;;;;;;5072206;28;24419;-52
2022/03/08 06:58:39;;;;;;;11.75;10.48;;;;;;;;;;5062025;28;24430;-50
2022/03/08 07:01:04;;;;;;;10.83;9.83;;;;;;;;;;5062076;28;24426;-52
2022/03/08 07:03:29;;;;;;;10.88;9.77;;;;;;;;;;5067317;28;24445;-52
2022/03/08 07:05:55;;;;;;;10.70;9.70;;;;;;;;;;5075427;28;24538;-52
2022/03/08 07:08:20;;;;;;;11.20;10.00;;;;;;;;;;5070273;28;24957;-52
2022/03/08 07:10:45;;;;;;;10.57;9.55;;;;;;;;;;5062885;28;24507;-53
2022/03/08 07:13:10;;;;;;;10.83;9.73;;;;;;;;;;5064489;28;24411;-52
2022/03/08 07:15:35;;;;;;;10.43;9.43;;;;;;;;;;5067472;28;24418;-52
2022/03/08 07:18:00;;;;;;;11.30;10.07;;;;;;;;;;5068441;28;24981;-53
2022/03/08 07:20:26;;;;;;;10.80;9.80;;;;;;;;;;5069420;28;24429;-52
2022/03/08 07:22:51;;;;;;;12.00;10.32;;;;;;;;;;5068478;28;24480;-51
2022/03/08 07:25:16;;;;;;;11.30;10.05;;;;;;;;;;5070700;28;25067;-50
2022/03/08 07:27:42;;;;;;;11.10;10.10;;;;;;;;;;5065580;28;24410;-50
2022/03/08 07:30:08;;;;;;;12.52;9.95;;;;;;;;;;5070472;28;24423;-52
2022/03/08 07:32:33;;;;;;;13.37;10.00;;;;;;;;;;5067636;28;24422;-51
2022/03/08 07:34:59;;;;;;;10.37;9.40;;;;;;;;;;5081309;28;24429;-51
2022/03/08 07:37:24;;;;;;;10.77;9.68;;;;;;;;;;5067223;28;24429;-51
2022/03/08 07:39:49;;;;;;;11.00;9.90;;;;;;;;;;5067839;28;24510;-50
2022/03/08 07:42:14;;;;;;;11.67;10.57;;;;;;;;;;5068790;28;24492;-53
2022/03/08 07:44:40;;;;;;;10.90;9.90;;;;;;;;;;5068174;28;24430;-51
2022/03/08 07:47:05;;;;;;;11.27;10.17;;;;;;;;;;5066199;28;24813;-51
2022/03/08 07:49:30;;;;;;;11.40;10.40;;;;;;;;;;5066390;28;24541;-51
2022/03/08 07:51:55;;;;;;;12.00;10.80;;;;;;;;;;5068226;28;24414;-51
2022/03/08 07:54:20;;;;;;;11.33;10.13;;;;;;;;;;5068667;28;25145;-51
2022/03/08 07:56:46;;;;;;;12.13;10.70;;;;;;;;;;5068346;28;24402;-51
2022/03/08 07:59:11;;;;;;;11.13;10.03;;;;;;;;;;5068612;28;24402;-51
2022/03/08 08:01:36;;;;;;;11.93;10.63;;;;;;;;;;5067674;28;24556;-51
2022/03/08 08:04:01;;;;;;;11.77;10.60;;;;;;;;;;5068164;28;24486;-53
2022/03/08 08:06:26;;;;;;;12.27;10.90;;;;;;;;;;5067546;28;24423;-50
2022/03/08 08:08:52;;;;;;;13.00;11.70;;;;;;;;;;5068176;28;24386;-50
2022/03/08 08:11:17;;;;;;;12.35;11.05;;;;;;;;;;5067531;28;24804;-52
2022/03/08 08:13:42;;;;;;;12.60;11.30;;;;;;;;;;5067720;28;24500;-51
2022/03/08 08:16:07;;;;;;;12.33;11.13;;;;;;;;;;5067865;28;24406;-52
2022/03/08 08:18:32;;;;;;;15.70;11.10;;;;;;;;;;5067411;28;24418;-51
2022/03/08 08:20:59;;;;;;;15.05;12.25;;;;;;;;;;5067228;28;24792;-53
2022/03/08 08:23:24;;;;;;;13.30;11.90;;;;;;;;;;5065518;28;24405;-52
2022/03/08 08:25:50;;;;;;;12.70;11.40;;;;;;;;;;5067464;28;24419;-51
2022/03/08 08:28:15;;;;;;;13.20;11.32;;;;;;;;;;5067803;28;24999;-53
2022/03/08 08:30:40;;;;;;;12.50;11.20;;;;;;;;;;5067931;28;24393;-52
2022/03/08 08:33:05;;;;;;;13.20;11.83;;;;;;;;;;5066793;28;24450;-52
2022/03/08 08:35:31;;;;;;;12.63;11.40;;;;;;;;;;5067478;28;24808;-51
2022/03/08 08:37:56;;;;;;;12.80;11.50;;;;;;;;;;5065169;28;24761;-52
2022/03/08 08:40:21;;;;;;;13.70;11.20;;;;;;;;;;5067487;28;24424;-52
2022/03/08 08:42:46;;;;;;;13.05;11.30;;;;;;;;;;5066883;28;24458;-52
2022/03/08 08:45:11;;;;;;;14.07;12.60;;;;;;;;;;5067261;28;24422;-52
2022/03/08 08:47:37;;;;;;;12.20;11.10;;;;;;;;;;5066799;28;24391;-53
2022/03/08 08:50:02;;;;;;;12.70;11.50;;;;;;;;;;5067272;28;24460;-52
2022/03/08 08:52:27;;;;;;;12.90;11.50;;;;;;;;;;5067030;28;24411;-51
2022/03/08 08:54:53;;;;;;;13.67;11.57;;;;;;;;;;5066753;28;24630;-51
2022/03/08 08:57:18;;;;;;;12.73;11.43;;;;;;;;;;5067566;28;24482;-52
2022/03/08 08:59:43;;;;;;;13.30;11.60;;;;;;;;;;5067078;28;24409;-52
2022/03/08 09:02:09;;;;;;;12.60;11.30;;;;;;;;;;5067121;28;24749;-52
2022/03/08 09:04:34;;;;;;;12.00;10.80;;;;;;;;;;5066895;28;24872;-52
2022/03/08 09:06:59;;;;;;;11.88;10.77;;;;;;;;;;5067430;28;24423;-52
2022/03/08 09:09:25;;;;;;;12.53;11.23;;;;;;;;;;5066993;28;25050;-51
2022/03/08 09:11:50;;;;;;;12.93;11.63;;;;;;;;;;5066932;28;24387;-52
2022/03/08 09:14:15;;;;;;;12.40;11.20;;;;;;;;;;5067285;28;24398;-52
2022/03/08 09:16:42;;;;;;;11.77;10.57;;;;;;;;;;5066466;28;24421;-52
2022/03/08 09:19:07;;;;;;;11.43;10.33;;;;;;;;;;5066689;28;24406;-53
2022/03/08 09:21:33;;;;;;;11.55;10.35;;;;;;;;;;5067223;28;24438;-53
2022/03/08 09:23:58;;;;;;;12.68;11.38;;;;;;;;;;5066821;28;24403;-51
2022/03/08 09:26:23;;;;;;;11.90;10.48;;;;;;;;;;5067076;28;24438;-51
2022/03/08 09:28:48;;;;;;;12.05;10.85;;;;;;;;;;5066274;28;24407;-52
2022/03/08 09:31:13;;;;;;;12.10;10.90;;;;;;;;;;5066536;28;24501;-53
2022/03/08 09:33:39;;;;;;;11.30;10.20;;;;;;;;;;5066508;28;24427;-52
2022/03/08 09:36:05;;;;;;;10.80;9.75;;;;;;;;;;5066613;28;24613;-51
2022/03/08 09:38:30;;;;;;;12.27;10.67;;;;;;;;;;5066757;28;24512;-52
2022/03/08 09:40:55;;;;;;;12.07;10.55;;;;;;;;;;5066527;28;24405;-52
2022/03/08 09:43:21;;;;;;;10.50;9.50;;;;;;;;;;5067135;28;24452;-53
2022/03/08 09:45:46;;;;;;;12.60;10.20;;;;;;;;;;5066310;28;25051;-53
2022/03/08 09:48:11;;;;;;;11.43;10.23;;;;;;;;;;5066089;28;24423;-53
2022/03/08 09:50:36;;;;;;;11.80;10.60;;;;;;;;;;5065090;28;24464;-52
2022/03/08 09:53:02;;;;;;;11.07;10.00;;;;;;;;;;5066751;28;24476;-52
2022/03/08 09:55:27;;;;;;;11.47;10.37;;;;;;;;;;5066775;28;24395;-52
2022/03/08 09:57:53;;;;;;;11.30;10.10;;;;;;;;;;5065915;28;24449;-52
2022/03/08 10:00:19;;;;;;;12.23;10.48;;;;;;;;;;5065920;28;24418;-53
2022/03/08 10:02:51;;;;;;;10.35;9.00;;;;;;;;;;5066207;28;24442;-52
2022/03/08 10:05:21;;;;;;;10.25;9.25;;;;;;;;;;5069503;28;24905;-53
2022/03/08 10:08:10;;;;;;;9.50;8.60;;;;;;;;;;5070489;28;24407;-53
2022/03/08 10:11:02;;;;;;;10.10;9.00;;;;;;;;;;5070427;28;24429;-53
2022/03/08 10:13:30;;;;;;;9.32;8.43;;;;;;;;;;5064361;28;24933;-52
2022/03/08 10:16:12;;;;;;;10.00;8.90;;;;;;;;;;5070141;28;24706;-53
2022/03/08 10:18:42;;;;;;;9.75;8.75;;;;;;;;;;5069964;28;24446;-52
2022/03/08 10:21:24;;;;;;;10.27;9.27;;;;;;;;;;5070251;28;24799;-52
2022/03/08 10:23:49;;;;;;;10.13;9.02;;;;;;;;;;5069503;28;24492;-53
2022/03/08 10:26:14;;;;;;;10.85;8.73;;;;;;;;;;5070104;28;24419;-54
2022/03/08 10:28:44;;;;;;;9.02;8.13;;;;;;;;;;5069984;28;24403;-52
2022/03/08 10:31:12;;;;;;;13.02;8.77;;;;;;;;;;5069949;28;24924;-53
2022/03/08 10:33:37;;;;;;;11.43;7.93;;;;;;;;;;5069319;28;24426;-52
2022/03/08 10:36:03;;;;;;;9.37;8.40;;;;;;;;;;5069438;28;24460;-53
2022/03/08 10:38:28;;;;;;;8.70;7.80;;;;;;;;;;5069609;28;24486;-53
2022/03/08 10:40:53;;;;;;;9.10;8.20;;;;;;;;;;5069602;28;24452;-53
2022/03/08 10:43:18;;;;;;;9.45;8.00;;;;;;;;;;5069636;28;24472;-53
2022/03/08 10:45:48;;;;;;;9.80;8.00;;;;;;;;;;5069346;28;24475;-53
2022/03/08 10:48:14;;;;;;;9.25;7.85;;;;;;;;;;5069874;28;24414;-53
2022/03/08 10:50:40;;;;;;;9.00;8.05;;;;;;;;;;5069637;28;24458;-52
2022/03/08 10:53:06;;;;;;;9.68;8.68;;;;;;;;;;5068846;28;24415;-52
2022/03/08 10:55:33;;;;;;;7.78;6.97;;;;;;;;;;5069228;28;24960;-53
2022/03/08 10:58:05;;;;;;;9.07;7.67;;;;;;;;;;5069402;28;24422;-52
2022/03/08 11:00:50;;;;;;;9.70;6.90;;;;;;;;;;5069340;28;24939;-53
2022/03/08 11:03:20;;;;;;;7.32;6.60;;;;;;;;;;5068178;28;25007;-51
2022/03/08 11:05:46;;;;;;;7.95;6.90;;;;;;;;;;5069616;28;24522;-53
2022/03/08 11:08:12;;;;;;;7.82;6.85;;;;;;;;;;5068794;28;24426;-54
2022/03/08 11:10:37;;;;;;;8.77;6.68;;;;;;;;;;5069624;28;24462;-54
2022/03/08 11:13:03;;;;;;;8.23;6.10;;;;;;;;;;5068986;28;24410;-53
2022/03/08 11:15:29;;;;;;;6.60;5.70;;;;;;;;;;5067433;28;24422;-52
2022/03/08 11:17:55;;;;;;;6.97;5.57;;;;;;;;;;5068881;28;24494;-53
2022/03/08 11:20:21;;;;;;;5.70;5.10;;;;;;;;;;5069064;28;24521;-52
2022/03/08 11:22:47;;;;;;;5.95;5.35;;;;;;;;;;5069062;28;24391;-52
2022/03/08 11:25:16;;;;;;;8.00;5.90;;;;;;;;;;5068757;28;24422;-52
2022/03/08 11:27:41;;;;;;;5.97;5.38;;;;;;;;;;5068879;28;24399;-53
2022/03/08 11:30:08;;;;;;;6.22;5.63;;;;;;;;;;5068392;28;24402;-53
2022/03/08 11:32:38;;;;;;;5.43;4.07;;;;;;;;;;5068788;28;24943;-52
2022/03/08 11:35:22;;;;;;;5.10;4.60;;;;;;;;;;5068866;28;24414;-52
2022/03/08 11:37:49;;;;;;;4.82;4.38;;;;;;;;;;5068052;28;24429;-52
2022/03/08 11:40:15;;;;;;;6.03;5.10;;;;;;;;;;5068603;28;24509;-53
2022/03/08 11:42:44;;;;;;;4.18;3.05;;;;;;;;;;5068321;28;24470;-52
2022/03/08 11:45:17;;;;;;;3.90;2.80;;;;;;;;;;5068472;28;24833;-52
2022/03/08 11:47:43;;;;;;;2.90;2.60;;;;;;;;;;5068043;28;24415;-53
2022/03/08 11:50:18;;;;;;;3.90;2.40;;;;;;;;;;5068366;28;24395;-52
2022/03/08 11:52:43;;;;;;;2.45;2.20;;;;;;;;;;5068281;28;24982;-53
2022/03/08 11:55:10;;;;;;;2.60;1.90;;;;;;;;;;5067275;28;24414;-52
2022/03/08 11:57:41;;;;;;;1.95;1.67;;;;;;;;;;5067809;28;24495;-52
2022/03/08 12:00:16;;;;;;;1.70;1.60;;;;;;;;;;5065542;28;24807;-51
2022/03/08 12:02:50;;;;;;;2.35;1.90;;;;;;;;;;5068238;28;24401;-51
2022/03/08 12:05:34;;;;;;;2.33;2.07;;;;;;;;;;5067508;28;25232;-51
2022/03/08 12:08:19;;;;;;;1.90;1.70;;;;;;;;;;5067866;28;25134;-51
2022/03/08 12:10:45;;;;;;;2.13;1.80;;;;;;;;;;5068039;28;24769;-51
2022/03/08 12:13:13;;;;;;;4.20;2.00;;;;;;;;;;5067458;28;24383;-51
2022/03/08 12:16:04;;;;;;;1.85;1.60;;;;;;;;;;5068047;28;24389;-53
2022/03/08 12:18:34;;;;;;;2.20;1.90;;;;;;;;;;5047492;28;24418;-52
2022/03/08 12:21:14;;;;;;;1.58;1.48;;;;;;;;;;5047846;28;24442;-52
2022/03/08 12:23:48;;;;;;;2.10;1.80;;;;;;;;;;5047730;28;24397;-52
2022/03/08 12:26:26;;;;;;;1.67;1.30;;;;;;;;;;5049078;28;24422;-52
2022/03/08 12:29:21;;;;;;;1.58;1.48;;;;;;;;;;5067421;28;24440;-52
2022/03/08 12:31:56;;;;;;;1.90;1.45;;;;;;;;;;5050754;28;24421;-52
2022/03/08 12:34:38;;;;;;;2.10;1.30;;;;;;;;;;5067849;28;24391;-52
2022/03/08 12:37:11;;;;;;;1.60;1.50;;;;;;;;;;5066989;28;24427;-51
2022/03/08 12:39:52;;;;;;;2.30;1.60;;;;;;;;;;5067163;28;24483;-51
2022/03/08 12:42:23;;;;;;;2.50;1.70;;;;;;;;;;5067266;28;24435;-51
2022/03/08 12:44:49;;;;;;;1.80;1.70;;;;;;;;;;5067492;28;24924;-51
2022/03/08 12:47:15;;;;;;;1.75;1.65;;;;;;;;;;5066559;28;24426;-52
2022/03/08 12:49:42;;;;;;;1.90;1.30;;;;;;;;;;5067350;28;24431;-52
2022/03/08 12:52:08;;;;;;;2.05;1.80;;;;;;;;;;5067101;28;24407;-53
2022/03/08 12:54:34;;;;;;;1.52;1.42;;;;;;;;;;5067484;28;24406;-52
2022/03/08 12:56:59;;;;;;;1.80;1.60;;;;;;;;;;5066887;28;24498;-53
2022/03/08 12:59:25;;;;;;;2.00;1.60;;;;;;;;;;5067089;28;24494;-52
2022/03/08 13:01:50;;;;;;;1.70;1.60;;;;;;;;;;5067024;28;24403;-52
2022/03/08 13:04:24;;;;;;;1.80;1.60;;;;;;;;;;5066811;28;24522;-52
2022/03/08 13:07:04;;;;;;;1.75;1.40;;;;;;;;;;5066644;28;24837;-52
2022/03/08 13:09:46;;;;;;;2.75;1.70;;;;;;;;;;5067245;28;24444;-52
2022/03/08 13:12:18;;;;;;;1.80;1.70;;;;;;;;;;5066676;28;24807;-52
2022/03/08 13:15:03;;;;;;;3.90;2.10;;;;;;;;;;5067536;28;24445;-52
2022/03/08 13:17:29;;;;;;;1.70;1.60;;;;;;;;;;5047358;28;24403;-52
2022/03/08 13:19:54;;;;;;;2.13;1.90;;;;;;;;;;5046937;28;24750;-51
2022/03/08 13:22:19;;;;;;;2.60;1.80;;;;;;;;;;5046680;28;24398;-52
2022/03/08 13:25:04;;;;;;;2.20;1.70;;;;;;;;;;5046694;28;24936;-51
2022/03/08 13:27:47;;;;;;;2.30;2.10;;;;;;;;;;5065215;28;24423;-52
2022/03/08 13:30:19;;;;;;;2.10;2.00;;;;;;;;;;5066659;28;25013;-51
2022/03/08 13:32:44;;;;;;;2.10;1.90;;;;;;;;;;5066878;28;24414;-52
2022/03/08 13:35:12;;;;;;;2.13;1.93;;;;;;;;;;5066389;28;24430;-52
2022/03/08 13:37:47;;;;;;;2.40;2.10;;;;;;;;;;5066987;28;24946;-52
2022/03/08 13:40:26;;;;;;;2.40;2.20;;;;;;;;;;5069510;28;24568;-52
2022/03/08 13:42:51;;;;;;;2.33;2.13;;;;;;;;;;5069935;28;24434;-52
2022/03/08 13:45:16;;;;;;;2.30;2.10;;;;;;;;;;5070543;28;24529;-52
2022/03/08 13:47:41;;;;;;;2.40;2.10;;;;;;;;;;5070694;28;24387;-52
2022/03/08 13:50:07;;;;;;;2.90;2.10;;;;;;;;;;5068048;28;24797;-52
2022/03/08 13:52:33;;;;;;;2.53;1.80;;;;;;;;;;5070766;28;24537;-52
2022/03/08 13:54:58;;;;;;;2.50;2.20;;;;;;;;;;5070357;28;24505;-52
2022/03/08 13:57:24;;;;;;;2.30;2.10;;;;;;;;;;5070784;28;24940;-52
2022/03/08 13:59:49;;;;;;;2.35;2.15;;;;;;;;;;5070386;28;24448;-52
2022/03/08 14:02:17;;;;;;;2.10;1.90;;;;;;;;;;5070148;28;24476;-52
2022/03/08 14:04:42;;;;;;;2.30;1.90;;;;;;;;;;5070374;28;24415;-52
2022/03/08 14:07:07;;;;;;;2.30;2.10;;;;;;;;;;5070207;28;24491;-51
2022/03/08 14:09:32;;;;;;;2.60;1.90;;;;;;;;;;5070215;28;24383;-53
2022/03/08 14:11:58;;;;;;;2.30;2.10;;;;;;;;;;5070517;28;24429;-52
2022/03/08 14:14:25;;;;;;;2.50;2.30;;;;;;;;;;5069938;28;24476;-52
2022/03/08 14:16:51;;;;;;;2.20;1.73;;;;;;;;;;5070324;28;24407;-52
2022/03/08 14:19:17;;;;;;;2.00;1.70;;;;;;;;;;5069953;28;24749;-53
2022/03/08 14:21:46;;;;;;;2.13;1.92;;;;;;;;;;5070321;28;24403;-53
2022/03/08 14:24:13;;;;;;;2.80;2.00;;;;;;;;;;5069340;28;24967;-53
2022/03/08 14:26:38;;;;;;;2.20;2.00;;;;;;;;;;5069611;28;24439;-52
2022/03/08 14:29:10;;;;;;;2.50;1.80;;;;;;;;;;5059246;28;24863;-52